createdAt,value
2023-01-13T00:00:54.758Z,96.00
2023-01-13T00:04:36.528Z,96.10
2023-01-13T00:08:18.276Z,96.00
2023-01-13T00:12:00.003Z,96.10
2023-01-13T00:15:41.977Z,96.20
2023-01-13T00:19:23.741Z,95.80
2023-01-13T00:23:05.420Z,95.80
2023-01-13T00:26:47.279Z,96.10
2023-01-13T00:30:28.960Z,96.50
2023-01-13T00:34:10.730Z,96.60
2023-01-13T00:37:52.467Z,96.60
2023-01-13T00:41:54.163Z,96.70
2023-01-13T00:45:35.859Z,96.70
2023-01-13T00:49:17.635Z,96.70
2023-01-13T00:53:00.527Z,96.50
2023-01-13T00:56:42.265Z,96.20
2023-01-13T01:00:23.991Z,96.00
2023-01-13T01:04:05.876Z,96.10
2023-01-13T01:07:47.624Z,96.40
2023-01-13T01:11:31.483Z,96.50
2023-01-13T01:15:13.175Z,96.20
2023-01-13T01:18:55.815Z,96.00
2023-01-13T01:22:37.621Z,95.90
2023-01-13T01:26:22.553Z,95.70
2023-01-13T01:30:04.710Z,95.80
2023-01-13T01:33:47.551Z,96.20
2023-01-13T01:37:29.267Z,96.30
2023-01-13T01:41:32.530Z,96.20
2023-01-13T01:45:19.361Z,95.30
2023-01-13T01:49:13.866Z,96.20
2023-01-13T01:53:03.690Z,95.80
2023-01-13T01:56:46.455Z,96.10
2023-01-13T02:00:29.471Z,96.40
2023-01-13T02:04:34.293Z,96.30
2023-01-13T02:08:17.030Z,95.20
2023-01-13T02:12:17.308Z,96.10
2023-01-13T02:16:06.622Z,96.00
2023-01-13T02:20:09.610Z,95.50
2023-01-13T02:24:18.687Z,95.60
2023-01-13T02:28:14.403Z,96.30
2023-01-13T02:32:04.690Z,96.10
2023-01-13T02:35:55.279Z,96.10
2023-01-13T02:40:10.422Z,95.80
2023-01-13T02:44:08.357Z,96.40
2023-01-13T02:47:52.901Z,96.80
2023-01-13T02:51:36.655Z,96.50
2023-01-13T02:55:34.372Z,96.60
2023-01-13T02:59:16.705Z,95.90
2023-01-13T03:02:58.514Z,96.80
2023-01-13T03:07:02.127Z,96.80
2023-01-13T03:11:05.956Z,95.60
2023-01-13T03:15:00.910Z,96.70
2023-01-13T03:19:11.643Z,96.60
2023-01-13T03:23:19.588Z,96.10
2023-01-13T03:27:07.261Z,95.80
2023-01-13T03:31:14.821Z,96.00
2023-01-13T03:35:09.455Z,96.10
2023-01-13T03:38:58.827Z,96.40
2023-01-13T03:43:03.264Z,96.70
2023-01-13T03:47:01.139Z,96.80
2023-01-13T03:50:52.251Z,96.70
2023-01-13T03:54:39.522Z,96.40
2023-01-13T03:58:29.731Z,96.60
2023-01-13T04:02:27.480Z,96.70
2023-01-13T04:06:29.148Z,96.30
2023-01-13T04:10:12.303Z,96.40
2023-01-13T04:13:55.871Z,97.00
2023-01-13T04:17:39.271Z,96.90
2023-01-13T04:21:21.107Z,96.70
2023-01-13T04:25:02.889Z,96.30
2023-01-13T04:28:44.627Z,96.30
2023-01-13T04:32:26.665Z,96.20
2023-01-13T04:36:08.692Z,96.30
2023-01-13T04:39:50.434Z,96.40
2023-01-13T04:43:32.183Z,96.60
2023-01-13T04:47:13.919Z,96.60
2023-01-13T04:50:55.662Z,97.10
2023-01-13T04:54:37.456Z,97.10
2023-01-13T04:58:19.268Z,97.40
2023-01-13T05:02:01.460Z,97.50
2023-01-13T05:05:43.350Z,97.40
2023-01-13T05:09:25.122Z,97.80
2023-01-13T05:13:25.570Z,97.50
2023-01-13T05:17:09.139Z,97.50
2023-01-13T05:20:50.845Z,97.50
2023-01-13T05:24:51.267Z,97.40
2023-01-13T05:28:34.095Z,97.60
2023-01-13T05:32:15.786Z,97.50
2023-01-13T05:36:02.814Z,97.50
2023-01-13T05:40:03.272Z,97.30
2023-01-13T05:43:45.014Z,97.30
2023-01-13T05:47:26.783Z,97.40
2023-01-13T05:51:11.666Z,97.60
2023-01-13T05:54:53.380Z,97.40
2023-01-13T05:58:35.401Z,97.80
2023-01-13T06:02:17.197Z,97.80
2023-01-13T06:06:01.608Z,98.00
2023-01-13T06:09:43.518Z,98.10
2023-01-13T06:13:25.773Z,98.10
2023-01-13T06:17:13.166Z,98.00
2023-01-13T06:20:55.656Z,97.70
2023-01-13T06:24:37.599Z,97.90
2023-01-13T06:28:19.573Z,97.90
2023-01-13T06:32:06.228Z,97.80
2023-01-13T06:35:53.401Z,97.70
2023-01-13T06:39:35.954Z,97.80
2023-01-13T06:43:17.951Z,98.00
2023-01-13T06:46:59.782Z,98.00
2023-01-13T06:50:42.289Z,98.10
2023-01-13T06:54:24.704Z,98.10
2023-01-13T06:58:07.287Z,97.80
2023-01-13T07:01:51.734Z,97.80
2023-01-13T07:05:33.759Z,97.70
2023-01-13T07:09:15.465Z,97.50
2023-01-13T07:13:19.246Z,97.80
2023-01-13T07:17:01.494Z,97.20
2023-01-13T07:20:43.224Z,96.40
2023-01-13T07:24:24.989Z,97.90
2023-01-13T07:28:06.696Z,97.70
2023-01-13T07:31:50.125Z,97.70
2023-01-13T07:35:32.149Z,97.60
2023-01-13T07:39:13.909Z,97.20
2023-01-13T07:43:14.530Z,97.40
2023-01-13T07:46:56.293Z,96.90
2023-01-13T07:50:38.074Z,97.10
2023-01-13T07:54:25.543Z,96.80
2023-01-13T07:58:13.339Z,96.90
2023-01-13T08:01:55.247Z,95.90
2023-01-13T08:05:37.082Z,96.80
2023-01-13T08:09:18.816Z,96.80
2023-01-13T08:13:19.946Z,96.80
2023-01-13T08:17:01.792Z,96.80
2023-01-13T08:20:43.895Z,96.90
2023-01-13T08:24:25.720Z,96.90
2023-01-13T08:28:08.004Z,96.90
2023-01-13T08:31:49.793Z,96.90
2023-01-13T08:35:31.535Z,97.20
2023-01-13T08:39:13.280Z,96.80
2023-01-13T08:42:56.314Z,96.90
2023-01-13T08:46:38.144Z,96.70
2023-01-13T08:50:20.720Z,96.80
2023-01-13T08:54:03.064Z,96.80
2023-01-13T08:57:44.933Z,96.90
2023-01-13T09:01:27.734Z,96.90
2023-01-13T09:05:10.894Z,97.00
2023-01-13T09:08:52.881Z,97.10
2023-01-13T09:12:53.155Z,97.20
2023-01-13T09:16:34.852Z,97.30
2023-01-13T09:20:16.933Z,97.40
2023-01-13T09:23:58.676Z,97.50
2023-01-13T09:27:40.560Z,97.50
2023-01-13T09:31:22.548Z,97.50
2023-01-13T09:35:06.711Z,97.40
2023-01-13T09:38:50.424Z,97.40
2023-01-13T09:43:09.750Z,97.30
2023-01-13T09:46:57.230Z,97.80
2023-01-13T09:50:58.754Z,97.70
2023-01-13T09:54:44.236Z,98.20
2023-01-13T09:58:27.013Z,97.70
2023-01-13T10:02:33.873Z,97.50
2023-01-13T10:06:23.820Z,96.40
2023-01-13T10:10:10.723Z,96.70
2023-01-13T10:13:57.997Z,97.30
2023-01-13T10:18:03.926Z,97.20
2023-01-13T10:22:15.550Z,96.70
2023-01-13T10:26:24.152Z,96.40
2023-01-13T10:30:21.157Z,96.10
2023-01-13T10:34:04.157Z,96.30
2023-01-13T10:37:57.613Z,97.30
2023-01-13T10:41:39.341Z,96.10
2023-01-13T10:45:25.434Z,97.30
2023-01-13T10:49:39.290Z,96.70
2023-01-13T10:53:25.209Z,94.70
2023-01-13T10:57:21.427Z,95.60
2023-01-13T11:01:06.241Z,95.90
2023-01-13T11:04:55.017Z,97.10
2023-01-13T11:08:49.657Z,97.30
2023-01-13T11:12:42.286Z,96.50
2023-01-13T11:16:25.286Z,97.00
2023-01-13T11:20:31.060Z,97.20
2023-01-13T11:24:23.751Z,95.80
2023-01-13T11:28:14.379Z,96.00
2023-01-13T11:32:08.887Z,96.20
2023-01-13T11:36:02.323Z,96.20
2023-01-13T11:40:01.517Z,96.70
2023-01-13T11:44:14.623Z,95.80
2023-01-13T11:48:00.081Z,96.40
2023-01-13T11:51:52.061Z,96.80
2023-01-13T11:56:06.043Z,96.30
2023-01-13T12:00:14.334Z,95.10
2023-01-13T12:03:58.783Z,95.50
2023-01-13T12:08:01.555Z,97.10
2023-01-13T12:12:07.724Z,96.20
2023-01-13T12:16:16.639Z,96.90
2023-01-13T12:20:02.005Z,95.20
2023-01-13T12:23:46.777Z,96.40
2023-01-13T12:27:43.935Z,96.40
2023-01-13T12:31:27.632Z,95.00
2023-01-13T12:35:40.014Z,97.00
2023-01-13T12:39:42.941Z,95.90
2023-01-13T12:43:43.692Z,95.00
2023-01-13T12:47:43.643Z,96.70
2023-01-13T12:51:26.695Z,95.30
2023-01-13T12:55:12.963Z,96.40
2023-01-13T12:59:18.892Z,96.30
2023-01-13T13:03:12.618Z,94.50
2023-01-13T13:07:10.710Z,95.10
2023-01-13T13:10:58.739Z,94.70
2023-01-13T13:14:40.467Z,95.50
2023-01-13T13:18:27.120Z,96.20
2023-01-13T13:22:12.089Z,95.70
2023-01-13T13:26:20.447Z,95.10
2023-01-13T13:30:21.126Z,94.00
2023-01-13T13:34:10.292Z,96.00
2023-01-13T13:38:18.411Z,94.60
2023-01-13T13:42:35.719Z,96.00
2023-01-13T13:46:46.939Z,94.20
2023-01-13T13:50:33.987Z,94.20
2023-01-13T13:54:21.926Z,95.90
2023-01-13T13:58:04.128Z,95.00
2023-01-13T14:01:50.119Z,95.80
2023-01-13T14:05:36.904Z,96.00
2023-01-13T14:09:19.796Z,95.20
2023-01-13T14:13:12.651Z,96.00
2023-01-13T14:16:58.590Z,96.10
2023-01-13T14:20:45.330Z,96.00
2023-01-13T14:24:27.453Z,95.20
2023-01-13T14:28:32.346Z,95.50
2023-01-13T14:32:19.049Z,93.10
2023-01-13T14:36:29.077Z,94.70
2023-01-13T14:40:33.280Z,94.10
2023-01-13T14:44:50.784Z,93.50
2023-01-13T14:48:38.143Z,93.50
2023-01-13T14:52:22.896Z,95.40
2023-01-13T14:56:42.585Z,95.20
2023-01-13T15:00:25.771Z,93.20
2023-01-13T15:04:38.231Z,94.70
2023-01-13T15:08:27.213Z,93.40
2023-01-13T15:12:22.061Z,94.00
2023-01-13T15:16:18.820Z,93.60
2023-01-13T15:20:01.502Z,93.30
2023-01-13T15:23:43.921Z,94.50
2023-01-13T15:27:26.516Z,94.50
2023-01-13T15:31:10.699Z,94.40
2023-01-13T15:34:53.602Z,94.60
2023-01-13T15:38:35.290Z,94.70
2023-01-13T15:42:35.806Z,94.70
2023-01-13T15:46:37.299Z,94.60
2023-01-13T15:50:20.832Z,94.40
2023-01-13T15:54:02.704Z,94.50
2023-01-13T15:57:50.022Z,94.60
2023-01-13T16:01:31.800Z,93.70
2023-01-13T16:05:14.382Z,94.50
2023-01-13T16:08:56.235Z,94.50
2023-01-13T16:12:37.991Z,94.50
2023-01-13T16:16:24.795Z,94.60
2023-01-13T16:20:12.561Z,93.90
2023-01-13T16:23:54.352Z,94.30
2023-01-13T16:27:36.097Z,94.30
2023-01-13T16:31:38.679Z,94.60
2023-01-13T16:35:21.194Z,93.30
2023-01-13T16:39:04.203Z,94.50
2023-01-13T16:42:45.954Z,94.20
2023-01-13T16:46:29.665Z,94.20
2023-01-13T16:50:41.478Z,94.10
2023-01-13T16:54:23.197Z,93.40
2023-01-13T16:58:05.763Z,94.20
2023-01-13T17:01:47.628Z,94.10
2023-01-13T17:05:30.820Z,94.00
2023-01-13T17:09:23.482Z,94.10
2023-01-13T17:13:15.686Z,93.60
2023-01-13T17:16:58.345Z,94.20
2023-01-13T17:20:40.351Z,94.20
2023-01-13T17:24:24.720Z,94.10
2023-01-13T17:28:06.480Z,94.00
2023-01-13T17:31:49.421Z,93.90
2023-01-13T17:35:31.205Z,93.80
2023-01-13T17:39:18.391Z,93.70
2023-01-13T17:43:00.130Z,93.50
2023-01-13T17:46:42.658Z,93.70
2023-01-13T17:50:27.529Z,93.70
2023-01-13T17:54:14.277Z,93.80
2023-01-13T17:57:56.675Z,93.70
2023-01-13T18:01:39.170Z,93.70
2023-01-13T18:05:21.075Z,93.70
2023-01-13T18:09:02.784Z,93.80
2023-01-13T18:12:44.474Z,94.00
2023-01-13T18:16:30.238Z,94.20
2023-01-13T18:20:35.258Z,94.20
2023-01-13T18:24:35.925Z,94.30
2023-01-13T18:28:17.731Z,94.80
2023-01-13T18:31:59.488Z,95.10
2023-01-13T18:35:41.237Z,95.20
2023-01-13T18:39:22.947Z,95.30
2023-01-13T18:43:04.735Z,94.90
2023-01-13T18:46:46.506Z,94.90
2023-01-13T18:50:28.748Z,95.20
2023-01-13T18:54:10.626Z,95.40
2023-01-13T18:57:53.120Z,95.50
2023-01-13T19:01:36.995Z,95.40
2023-01-13T19:05:18.857Z,95.10
2023-01-13T19:09:08.526Z,94.80
2023-01-13T19:12:50.311Z,94.70
2023-01-13T19:16:32.344Z,94.70
2023-01-13T19:20:14.565Z,94.60
2023-01-13T19:23:56.936Z,94.70
2023-01-13T19:27:39.851Z,94.70
2023-01-13T19:31:21.714Z,94.70
2023-01-13T19:35:04.140Z,94.70
2023-01-13T19:38:45.844Z,94.80
2023-01-13T19:42:46.136Z,94.90
2023-01-13T19:46:27.932Z,95.00
2023-01-13T19:50:10.492Z,95.10
2023-01-13T19:53:52.222Z,95.20
2023-01-13T19:57:33.927Z,95.20
2023-01-13T20:01:16.238Z,95.20
2023-01-13T20:05:00.308Z,95.20
2023-01-13T20:08:45.987Z,95.20
2023-01-13T20:12:29.139Z,95.20
2023-01-13T20:16:11.100Z,95.20
2023-01-13T20:19:53.023Z,95.10
2023-01-13T20:23:34.828Z,95.10
2023-01-13T20:27:16.555Z,95.20
2023-01-13T20:30:58.401Z,95.10
2023-01-13T20:34:40.124Z,95.10
2023-01-13T20:38:21.815Z,95.10
2023-01-13T20:42:22.415Z,95.10
2023-01-13T20:46:04.233Z,95.10
2023-01-13T20:49:46.116Z,95.10
2023-01-13T20:53:27.855Z,95.20
2023-01-13T20:57:11.212Z,95.20
2023-01-13T21:00:58.595Z,95.20
2023-01-13T21:04:40.653Z,95.30
2023-01-13T21:08:22.534Z,95.70
2023-01-13T21:12:23.286Z,95.40
2023-01-13T21:16:05.243Z,95.50
2023-01-13T21:19:46.971Z,95.50
2023-01-13T21:23:28.704Z,95.50
2023-01-13T21:27:11.821Z,95.60
2023-01-13T21:30:53.793Z,95.60
2023-01-13T21:34:35.667Z,95.70
2023-01-13T21:38:17.388Z,95.90
2023-01-13T21:42:17.922Z,96.10
2023-01-13T21:46:18.405Z,96.20
2023-01-13T21:50:00.649Z,96.40
2023-01-13T21:53:42.418Z,96.60
2023-01-13T21:57:25.765Z,96.60
2023-01-13T22:01:10.066Z,96.70
2023-01-13T22:04:53.789Z,96.80
2023-01-13T22:08:35.943Z,96.90
2023-01-13T22:12:22.477Z,96.90
2023-01-13T22:16:04.691Z,97.00
2023-01-13T22:19:50.347Z,97.10
2023-01-13T22:23:32.132Z,97.30
2023-01-13T22:27:20.764Z,97.30
2023-01-13T22:31:06.886Z,97.40
2023-01-13T22:34:48.662Z,97.50
2023-01-13T22:38:30.737Z,97.50
2023-01-13T22:42:12.501Z,97.60
2023-01-13T22:46:13.282Z,97.60
2023-01-13T22:49:55.012Z,97.70
2023-01-13T22:53:38.008Z,98.00
2023-01-13T22:57:19.945Z,97.80
2023-01-13T23:01:13.836Z,97.80
2023-01-13T23:04:55.632Z,98.00
2023-01-13T23:08:37.404Z,98.10
2023-01-13T23:12:19.089Z,98.10
2023-01-13T23:16:05.874Z,98.10
2023-01-13T23:19:47.585Z,98.20
2023-01-13T23:23:29.420Z,98.30
2023-01-13T23:27:11.128Z,98.30
2023-01-13T23:30:53.694Z,98.30
2023-01-13T23:34:35.442Z,98.30
2023-01-13T23:38:17.188Z,98.40
2023-01-13T23:41:59.512Z,98.40
2023-01-13T23:45:41.256Z,98.40
2023-01-13T23:49:23.006Z,98.50
2023-01-13T23:53:06.693Z,98.50
2023-01-13T23:56:50.408Z,98.60
